Terminal Aerodrome Forecast
Issued by NWS Cleveland, OH

Home | Current Version | Previous Version | Text Only | Print | Product List | Glossary Off
Versions: 1 2 3 4 5 6 7 8 9 10 11 12 13 14 15 16 17 18 19 20 21

000
FTUS41 KCLE 271500 AAA
TAFYNG
TAF AMD
KYNG 271506Z 2715/2812 24006KT P6SM BKN015
     FM271600 24006KT P6SM BKN025
     FM271800 24008KT P6SM BKN035
     FM272100 24008KT P6SM VCTS BKN035CB OVC100
      TEMPO 2722/2802 2SM TSRA BR OVC015CB
     FM280500 26006KT 6SM BR VCSH OVC035=

USA.gov is the U.S. government's official web portal to all federal, state and local government web resources and services.